createdAt,value
2017-09-11T00:00:13.113Z,13.60
2017-09-11T00:02:41.183Z,13.60
2017-09-11T00:05:08.142Z,13.50
2017-09-11T00:07:34.688Z,13.50
2017-09-11T00:10:00.904Z,13.40
2017-09-11T00:12:27.805Z,13.40
2017-09-11T00:14:56.880Z,13.40
2017-09-11T00:17:24.168Z,13.40
2017-09-11T00:19:51.005Z,13.40
2017-09-11T00:22:17.221Z,13.50
2017-09-11T00:24:43.449Z,13.60
2017-09-11T00:27:10.332Z,13.60
2017-09-11T00:29:37.303Z,13.50
2017-09-11T00:32:03.519Z,13.40
2017-09-11T00:34:29.956Z,13.40
2017-09-11T00:36:56.824Z,13.30
2017-09-11T00:39:23.468Z,13.30
2017-09-11T00:41:50.512Z,13.30
2017-09-11T00:44:16.716Z,13.20
2017-09-11T00:46:42.973Z,13.20
2017-09-11T00:49:09.185Z,13.20
2017-09-11T00:51:35.736Z,13.20
2017-09-11T00:54:02.038Z,13.20
2017-09-11T00:56:29.244Z,13.30
2017-09-11T00:58:55.508Z,13.30
2017-09-11T01:01:21.755Z,13.30
2017-09-11T01:03:48.000Z,13.30
2017-09-11T01:06:15.009Z,13.30
2017-09-11T01:08:41.259Z,13.40
2017-09-11T01:11:07.513Z,13.40
2017-09-11T01:13:34.393Z,13.40
2017-09-11T01:16:02.352Z,13.30
2017-09-11T01:18:29.944Z,13.30
2017-09-11T01:20:56.205Z,13.30
2017-09-11T01:23:23.453Z,13.30
2017-09-11T01:25:50.332Z,13.20
2017-09-11T01:28:17.626Z,13.20
2017-09-11T01:30:44.037Z,13.20
2017-09-11T01:33:12.024Z,13.20
2017-09-11T01:35:38.708Z,13.10
2017-09-11T01:38:05.685Z,13.20
2017-09-11T01:40:33.257Z,13.20
2017-09-11T01:42:59.477Z,13.10
2017-09-11T01:45:26.433Z,13.00
2017-09-11T01:47:52.654Z,13.00
2017-09-11T01:50:19.234Z,12.90
2017-09-11T01:52:46.787Z,12.80
2017-09-11T01:55:13.005Z,12.80
2017-09-11T01:57:40.197Z,12.80
2017-09-11T02:00:06.720Z,12.70
2017-09-11T02:02:32.936Z,12.70
2017-09-11T02:04:59.141Z,12.70
2017-09-11T02:07:25.364Z,12.60
2017-09-11T02:09:51.593Z,12.60
2017-09-11T02:12:17.804Z,12.60
2017-09-11T02:14:44.667Z,12.60
2017-09-11T02:17:11.958Z,12.60
2017-09-11T02:19:38.726Z,12.60
2017-09-11T02:22:05.708Z,12.50
2017-09-11T02:24:32.487Z,12.50
2017-09-11T02:26:59.576Z,12.60
2017-09-11T02:29:25.852Z,12.60
2017-09-11T02:31:52.060Z,12.50
2017-09-11T02:34:18.833Z,12.40
2017-09-11T02:36:45.065Z,12.30
2017-09-11T02:39:12.839Z,12.30
2017-09-11T02:41:39.793Z,12.40
2017-09-11T02:44:07.284Z,12.30
2017-09-11T02:46:34.332Z,12.30
2017-09-11T02:49:01.091Z,12.30
2017-09-11T02:51:27.302Z,12.30
2017-09-11T02:53:53.506Z,12.30
2017-09-11T02:56:20.289Z,12.30
2017-09-11T02:58:46.533Z,12.30
2017-09-11T03:01:14.077Z,12.30
2017-09-11T03:03:40.268Z,12.20
2017-09-11T03:06:07.118Z,12.30
2017-09-11T03:08:33.351Z,12.30
2017-09-11T03:11:00.078Z,12.40
2017-09-11T03:13:27.371Z,12.20
2017-09-11T03:15:54.565Z,12.20
2017-09-11T03:18:20.879Z,12.20
2017-09-11T03:20:47.844Z,12.10
2017-09-11T03:23:14.789Z,12.20
2017-09-11T03:25:42.105Z,12.20
2017-09-11T03:28:10.118Z,12.10
2017-09-11T03:30:36.436Z,12.10
2017-09-11T03:33:03.970Z,12.20
2017-09-11T03:35:30.687Z,12.20
2017-09-11T03:37:57.021Z,12.20
2017-09-11T03:40:23.461Z,12.20
2017-09-11T03:42:50.989Z,12.30
2017-09-11T03:45:17.249Z,12.30
2017-09-11T03:47:44.024Z,12.30
2017-09-11T03:50:11.025Z,12.10
2017-09-11T03:52:37.255Z,12.10
2017-09-11T03:55:03.511Z,12.10
2017-09-11T03:57:31.070Z,12.10
2017-09-11T03:59:58.363Z,12.10
2017-09-11T04:02:25.143Z,12.20
2017-09-11T04:04:51.344Z,12.20
2017-09-11T04:07:17.576Z,12.30
2017-09-11T04:09:44.422Z,12.30
2017-09-11T04:12:10.657Z,12.30
2017-09-11T04:14:37.565Z,12.20
2017-09-11T04:17:04.328Z,12.20
2017-09-11T04:19:30.719Z,12.10
2017-09-11T04:21:58.359Z,12.10
2017-09-11T04:24:24.604Z,12.10
2017-09-11T04:26:51.554Z,12.10
2017-09-11T04:29:18.593Z,12.10
2017-09-11T04:31:45.552Z,12.30
2017-09-11T04:34:13.078Z,12.20
2017-09-11T04:36:39.863Z,12.30
2017-09-11T04:39:07.429Z,12.30
2017-09-11T04:41:34.078Z,12.30
2017-09-11T04:44:00.442Z,12.30
2017-09-11T04:46:26.936Z,12.30
2017-09-11T04:48:53.160Z,12.20
2017-09-11T04:51:19.336Z,12.20
2017-09-11T04:53:45.552Z,12.30
2017-09-11T04:56:11.917Z,12.40
2017-09-11T04:58:38.884Z,12.50
2017-09-11T05:01:05.123Z,12.50
2017-09-11T05:03:31.342Z,12.50
2017-09-11T05:05:57.559Z,12.50
2017-09-11T05:08:23.814Z,12.50
2017-09-11T05:10:50.861Z,12.50
2017-09-11T05:13:17.188Z,12.50
2017-09-11T05:15:43.751Z,12.60
2017-09-11T05:18:09.973Z,12.60
2017-09-11T05:20:37.187Z,12.50
2017-09-11T05:23:03.395Z,12.60
2017-09-11T05:25:30.361Z,12.70
2017-09-11T05:27:57.238Z,12.60
2017-09-11T05:30:23.488Z,12.70
2017-09-11T05:32:49.719Z,12.80
2017-09-11T05:35:16.092Z,12.90
2017-09-11T05:37:42.372Z,12.90
2017-09-11T05:40:08.893Z,12.90
2017-09-11T05:42:35.736Z,12.90
2017-09-11T05:45:01.936Z,13.00
2017-09-11T05:47:28.240Z,13.20
2017-09-11T05:49:54.449Z,13.20
2017-09-11T05:52:21.817Z,13.70
2017-09-11T05:54:49.773Z,13.80
2017-09-11T05:57:17.104Z,13.90
2017-09-11T05:59:43.590Z,13.90
2017-09-11T06:02:10.691Z,13.90
2017-09-11T06:04:37.663Z,13.90
2017-09-11T06:07:05.648Z,14.10
2017-09-11T06:09:31.894Z,14.10
2017-09-11T06:11:58.696Z,14.30
2017-09-11T06:14:25.690Z,15.30
2017-09-11T06:16:52.557Z,15.30
2017-09-11T06:19:19.321Z,15.90
2017-09-11T06:21:46.692Z,16.70
2017-09-11T06:24:13.033Z,16.70
2017-09-11T06:26:40.304Z,16.80
2017-09-11T06:29:07.692Z,16.80
2017-09-11T06:31:34.908Z,16.70
2017-09-11T06:34:02.672Z,16.70
2017-09-11T06:36:30.218Z,16.40
2017-09-11T06:38:56.447Z,16.50
2017-09-11T06:41:23.854Z,16.30
2017-09-11T06:43:50.795Z,16.30
2017-09-11T06:46:18.094Z,16.10
2017-09-11T06:48:45.129Z,15.80
2017-09-11T06:51:11.560Z,15.80
2017-09-11T06:53:37.771Z,15.70
2017-09-11T06:56:05.403Z,15.40
2017-09-11T06:58:31.708Z,15.30
2017-09-11T07:00:57.957Z,15.30
2017-09-11T07:03:25.163Z,15.30
2017-09-11T07:05:52.667Z,15.60
2017-09-11T07:08:19.552Z,15.60
2017-09-11T07:10:46.764Z,15.90
2017-09-11T07:13:22.177Z,16.20
2017-09-11T07:15:48.374Z,16.10
2017-09-11T07:18:15.887Z,16.00
2017-09-11T07:20:42.680Z,16.00
2017-09-11T07:23:10.470Z,15.90
2017-09-11T07:25:36.761Z,15.90
2017-09-11T07:28:04.740Z,15.70
2017-09-11T07:30:32.382Z,15.60
2017-09-11T07:32:59.332Z,15.60
2017-09-11T07:35:26.900Z,15.60
2017-09-11T07:37:54.529Z,15.70
2017-09-11T07:40:20.762Z,15.70
2017-09-11T07:42:47.611Z,15.60
2017-09-11T07:45:14.550Z,15.60
2017-09-11T07:47:40.796Z,15.70
2017-09-11T07:50:07.780Z,15.70
2017-09-11T07:52:35.130Z,15.70
2017-09-11T07:55:01.328Z,15.70
2017-09-11T07:57:28.911Z,15.60
2017-09-11T07:59:56.229Z,15.60
2017-09-11T08:02:22.607Z,15.50
2017-09-11T08:04:49.674Z,15.50
2017-09-11T08:07:16.628Z,15.50
2017-09-11T08:09:43.552Z,15.40
2017-09-11T08:12:09.830Z,15.50
2017-09-11T08:14:36.967Z,15.60
2017-09-11T08:17:03.299Z,15.70
2017-09-11T08:19:30.505Z,15.70
2017-09-11T08:21:57.488Z,15.70
2017-09-11T08:24:24.416Z,15.80
2017-09-11T08:26:50.690Z,16.00
2017-09-11T08:29:17.501Z,15.90
2017-09-11T08:31:45.184Z,16.00
2017-09-11T08:34:13.126Z,16.00
2017-09-11T08:36:39.348Z,16.00
2017-09-11T08:39:05.581Z,16.00
2017-09-11T08:41:32.523Z,16.30
2017-09-11T08:43:58.982Z,16.30
2017-09-11T08:46:26.637Z,16.50
2017-09-11T08:48:52.837Z,16.50
2017-09-11T08:51:20.016Z,16.60
2017-09-11T08:53:47.563Z,16.60
2017-09-11T08:56:13.781Z,16.60
2017-09-11T08:58:40.003Z,16.50
2017-09-11T09:01:06.249Z,16.40
2017-09-11T09:03:33.040Z,16.50
2017-09-11T09:06:00.040Z,16.60
2017-09-11T09:08:26.554Z,16.50
2017-09-11T09:10:54.737Z,16.60
2017-09-11T09:13:20.980Z,16.60
2017-09-11T09:15:48.333Z,16.60
2017-09-11T09:18:16.338Z,16.40
2017-09-11T09:20:42.949Z,16.40
2017-09-11T09:23:09.848Z,16.40
2017-09-11T09:25:36.064Z,16.50
2017-09-11T09:28:02.428Z,16.60
2017-09-11T09:30:29.767Z,16.50
2017-09-11T09:32:56.286Z,16.50
2017-09-11T09:35:22.489Z,16.70
2017-09-11T09:37:49.652Z,16.80
2017-09-11T09:40:15.872Z,17.00
2017-09-11T09:42:42.103Z,17.10
2017-09-11T09:45:08.519Z,17.30
2017-09-11T09:47:36.781Z,17.40
2017-09-11T09:50:05.214Z,17.60
2017-09-11T09:52:33.531Z,17.60
2017-09-11T09:55:01.057Z,18.10
2017-09-11T09:57:27.281Z,18.00
2017-09-11T09:59:54.187Z,18.10
2017-09-11T10:02:22.179Z,18.10
2017-09-11T10:04:48.400Z,18.10
2017-09-11T10:07:14.596Z,18.30
2017-09-11T10:09:40.848Z,18.50
2017-09-11T10:12:07.049Z,18.30
2017-09-11T10:14:33.520Z,18.10
2017-09-11T10:17:01.558Z,18.30
2017-09-11T10:19:29.308Z,18.10
2017-09-11T10:21:55.508Z,18.00
2017-09-11T10:24:21.731Z,18.10
2017-09-11T10:26:47.972Z,18.20
2017-09-11T10:29:14.818Z,18.20
2017-09-11T10:31:42.036Z,18.20
2017-09-11T10:34:08.219Z,18.20
2017-09-11T10:36:34.431Z,18.40
2017-09-11T10:39:01.090Z,18.40
2017-09-11T10:41:28.069Z,18.20
2017-09-11T10:43:54.281Z,18.10
2017-09-11T10:46:20.480Z,18.10
2017-09-11T10:48:46.716Z,18.10
2017-09-11T10:51:13.680Z,18.30
2017-09-11T10:53:39.880Z,18.20
2017-09-11T10:56:06.870Z,18.70
2017-09-11T10:58:33.077Z,18.70
2017-09-11T11:00:59.595Z,18.80
2017-09-11T11:03:26.593Z,18.80
2017-09-11T11:05:53.804Z,18.70
2017-09-11T11:08:20.691Z,18.80
2017-09-11T11:10:47.414Z,18.80
2017-09-11T11:13:13.981Z,18.70
2017-09-11T11:15:40.172Z,18.80
2017-09-11T11:18:07.221Z,18.70
2017-09-11T11:20:33.452Z,18.80
2017-09-11T11:23:00.181Z,19.00
2017-09-11T11:25:26.392Z,19.10
2017-09-11T11:27:53.840Z,19.20
2017-09-11T11:30:21.355Z,19.20
2017-09-11T11:32:48.006Z,19.20
2017-09-11T11:35:15.492Z,19.40
2017-09-11T11:37:42.406Z,19.40
2017-09-11T11:40:08.747Z,19.40
2017-09-11T11:42:35.569Z,19.30
2017-09-11T11:45:03.259Z,19.40
2017-09-11T11:47:29.464Z,19.40
2017-09-11T11:49:56.343Z,19.50
2017-09-11T11:52:23.109Z,19.70
2017-09-11T11:54:49.473Z,19.90
2017-09-11T11:57:18.124Z,19.70
2017-09-11T11:59:45.299Z,19.70
2017-09-11T12:02:12.556Z,19.60
2017-09-11T12:04:38.786Z,19.80
2017-09-11T12:07:04.995Z,19.90
2017-09-11T12:09:31.911Z,20.00
2017-09-11T12:11:58.096Z,19.80
2017-09-11T12:14:24.332Z,19.80
2017-09-11T12:16:50.563Z,19.80
2017-09-11T12:19:17.379Z,19.70
2017-09-11T12:21:44.122Z,19.70
2017-09-11T12:24:10.699Z,19.70
2017-09-11T12:26:37.682Z,19.70
2017-09-11T12:29:04.536Z,20.00
2017-09-11T12:31:30.833Z,19.90
2017-09-11T12:43:42.130Z,20.10
2017-09-11T12:46:08.956Z,20.20
2017-09-11T12:48:35.813Z,20.20
2017-09-11T12:51:02.025Z,20.20
2017-09-11T12:53:29.323Z,20.10
2017-09-11T12:55:56.255Z,19.90
2017-09-11T12:58:23.658Z,19.90
2017-09-11T13:00:49.877Z,20.10
2017-09-11T13:03:16.793Z,20.30
2017-09-11T13:05:44.022Z,20.70
2017-09-11T13:08:10.289Z,20.70
2017-09-11T13:10:36.501Z,20.70
2017-09-11T13:13:09.575Z,20.60
2017-09-11T13:15:36.541Z,20.70
2017-09-11T13:18:04.813Z,20.70
2017-09-11T13:20:31.789Z,20.60
2017-09-11T13:22:58.034Z,20.60
2017-09-11T13:25:25.898Z,20.40
2017-09-11T13:27:53.689Z,20.40
2017-09-11T13:30:20.186Z,20.50
2017-09-11T13:32:46.803Z,20.60
2017-09-11T13:35:13.626Z,20.50
2017-09-11T13:37:41.264Z,20.10
2017-09-11T13:40:07.447Z,20.00
2017-09-11T13:42:33.970Z,20.10
2017-09-11T13:45:01.694Z,20.10
2017-09-11T13:47:28.921Z,20.10
2017-09-11T13:49:55.676Z,20.00
2017-09-11T13:52:21.926Z,19.70
2017-09-11T13:54:49.527Z,19.90
2017-09-11T13:57:15.768Z,19.80
2017-09-11T13:59:42.211Z,19.90
2017-09-11T14:02:09.070Z,20.00
2017-09-11T14:04:35.696Z,19.90
2017-09-11T14:07:01.948Z,19.80
2017-09-11T14:09:28.976Z,19.70
2017-09-11T14:11:55.203Z,19.60
2017-09-11T14:14:22.284Z,19.70
2017-09-11T14:16:49.473Z,19.70
2017-09-11T14:19:15.656Z,19.70
2017-09-11T14:21:42.630Z,19.70
2017-09-11T14:24:09.453Z,19.70
2017-09-11T14:26:35.693Z,19.70
2017-09-11T14:29:02.271Z,19.70
2017-09-11T14:31:29.815Z,19.60
2017-09-11T14:33:56.317Z,19.50
2017-09-11T14:36:22.544Z,19.60
2017-09-11T14:38:48.936Z,19.50
2017-09-11T14:41:15.961Z,19.40
2017-09-11T14:43:42.225Z,19.40
2017-09-11T14:46:09.188Z,19.30
2017-09-11T14:48:35.613Z,19.30
2017-09-11T14:51:03.589Z,19.30
2017-09-11T14:53:29.796Z,19.30
2017-09-11T14:55:56.752Z,19.40
2017-09-11T14:58:23.705Z,19.40
2017-09-11T15:00:49.973Z,19.40
2017-09-11T15:03:16.237Z,19.50
2017-09-11T15:05:42.465Z,19.60
2017-09-11T15:08:08.664Z,19.50
2017-09-11T15:10:35.553Z,19.60
2017-09-11T15:13:03.477Z,19.70
2017-09-11T15:15:30.008Z,19.60
2017-09-11T15:17:56.217Z,19.70
2017-09-11T15:20:22.647Z,19.60
2017-09-11T15:22:48.868Z,19.60
2017-09-11T15:25:15.407Z,19.70
2017-09-11T15:27:42.480Z,19.70
2017-09-11T15:30:09.250Z,19.70
2017-09-11T15:32:36.318Z,19.80
2017-09-11T15:35:03.967Z,19.80
2017-09-11T15:37:30.236Z,19.80
2017-09-11T15:39:56.469Z,19.80
2017-09-11T15:42:22.685Z,19.70
2017-09-11T15:44:50.001Z,19.70
2017-09-11T15:47:17.494Z,19.60
2017-09-11T15:49:43.709Z,19.60
2017-09-11T15:52:10.686Z,19.50
2017-09-11T15:54:37.248Z,19.50
2017-09-11T15:57:04.785Z,19.50
2017-09-11T15:59:31.062Z,19.40
2017-09-11T16:01:57.320Z,19.40
2017-09-11T16:04:23.545Z,19.50
2017-09-11T16:06:49.774Z,19.40
2017-09-11T16:09:16.087Z,19.40
2017-09-11T16:11:43.033Z,19.40
2017-09-11T16:14:10.559Z,19.40
2017-09-11T16:16:36.886Z,19.40
2017-09-11T16:19:03.767Z,19.40
2017-09-11T16:21:30.052Z,19.40
2017-09-11T16:23:56.263Z,19.50
2017-09-11T16:26:56.381Z,19.50
2017-09-11T16:29:23.175Z,19.50
2017-09-11T16:31:50.156Z,19.30
2017-09-11T16:34:16.985Z,19.30
2017-09-11T16:36:44.221Z,19.30
2017-09-11T16:39:11.033Z,19.30
2017-09-11T16:41:38.045Z,19.30
2017-09-11T16:44:04.639Z,19.30
2017-09-11T16:46:32.061Z,19.10
2017-09-11T16:48:59.403Z,19.10
2017-09-11T16:51:26.510Z,19.10
2017-09-11T16:53:56.365Z,18.80
2017-09-11T16:56:24.080Z,18.80
2017-09-11T16:58:52.089Z,18.90
2017-09-11T17:01:18.450Z,18.80
2017-09-11T17:03:44.682Z,19.00
2017-09-11T17:06:11.662Z,18.80
2017-09-11T17:08:39.180Z,18.80
2017-09-11T17:11:05.953Z,18.80
2017-09-11T17:13:33.464Z,18.80
2017-09-11T17:15:59.717Z,18.80
2017-09-11T17:18:25.990Z,18.80
2017-09-11T17:20:53.151Z,18.80
2017-09-11T17:23:20.565Z,18.80
2017-09-11T17:25:48.098Z,18.60
2017-09-11T17:28:14.877Z,18.60
2017-09-11T17:30:41.610Z,18.60
2017-09-11T17:33:09.115Z,18.60
2017-09-11T17:35:36.348Z,18.50
2017-09-11T17:38:03.640Z,18.40
2017-09-11T17:40:30.857Z,18.40
2017-09-11T17:42:57.472Z,18.30
2017-09-11T17:45:24.001Z,18.30
2017-09-11T17:47:51.910Z,18.30
2017-09-11T17:50:18.214Z,18.30
2017-09-11T17:52:44.995Z,18.30
2017-09-11T17:55:12.768Z,18.30
2017-09-11T17:57:39.506Z,18.30
2017-09-11T18:00:06.271Z,18.10
2017-09-11T18:02:33.815Z,18.00
2017-09-11T18:05:00.533Z,18.00
2017-09-11T18:07:26.805Z,18.00
2017-09-11T18:09:54.238Z,18.00
2017-09-11T18:12:21.274Z,18.00
2017-09-11T18:14:47.538Z,18.00
2017-09-11T18:17:15.797Z,17.90
2017-09-11T18:19:42.242Z,17.90
2017-09-11T18:22:09.812Z,17.80
2017-09-11T18:24:36.838Z,17.70
2017-09-11T18:27:03.078Z,17.60
2017-09-11T18:29:30.197Z,17.50
2017-09-11T18:31:57.924Z,17.50
2017-09-11T18:34:24.691Z,17.40
2017-09-11T18:36:51.465Z,17.40
2017-09-11T18:39:18.406Z,17.50
2017-09-11T18:41:46.344Z,17.50
2017-09-11T18:44:12.700Z,17.50
2017-09-11T18:46:38.932Z,17.50
2017-09-11T18:49:05.156Z,17.50
2017-09-11T18:51:31.707Z,17.40
2017-09-11T18:53:59.683Z,17.40
2017-09-11T18:56:27.147Z,17.30
2017-09-11T18:58:53.893Z,17.30
2017-09-11T19:01:20.103Z,17.30
2017-09-11T19:03:47.060Z,17.20
2017-09-11T19:06:13.792Z,17.20
2017-09-11T19:08:41.835Z,17.10
2017-09-11T19:11:08.215Z,17.00
2017-09-11T19:13:35.479Z,17.00
2017-09-11T19:16:03.560Z,17.00
2017-09-11T19:18:38.003Z,16.90
2017-09-11T19:21:04.256Z,16.90
2017-09-11T19:23:31.892Z,16.80
2017-09-11T19:25:58.133Z,16.80
2017-09-11T19:28:24.366Z,16.80
2017-09-11T19:30:51.791Z,16.80
2017-09-11T19:33:18.144Z,16.70
2017-09-11T19:35:44.703Z,16.70
2017-09-11T19:38:12.292Z,16.60
2017-09-11T19:40:38.522Z,16.60
2017-09-11T19:43:04.788Z,16.60
2017-09-11T19:45:32.521Z,16.50
2017-09-11T19:47:59.150Z,16.50
2017-09-11T19:50:25.729Z,16.40
2017-09-11T19:52:53.930Z,16.40
2017-09-11T19:55:21.538Z,16.40
2017-09-11T19:57:47.742Z,16.40
2017-09-11T20:00:14.624Z,16.40
2017-09-11T20:02:40.861Z,16.30
2017-09-11T20:05:07.157Z,16.20
2017-09-11T20:07:34.101Z,16.20
2017-09-11T20:10:00.963Z,16.20
2017-09-11T20:12:28.242Z,16.20
2017-09-11T20:14:56.515Z,16.20
2017-09-11T20:17:23.501Z,16.10
2017-09-11T20:19:51.542Z,16.10
2017-09-11T20:35:18.791Z,16.10
2017-09-11T20:37:45.590Z,15.60
2017-09-11T20:40:12.062Z,15.60
2017-09-11T20:42:38.889Z,15.60
2017-09-11T20:45:06.412Z,15.50
2017-09-11T20:47:32.732Z,15.60
2017-09-11T20:50:00.175Z,15.50
2017-09-11T20:52:27.513Z,15.60
2017-09-11T20:55:11.005Z,15.50
2017-09-11T20:57:54.263Z,15.50
2017-09-11T21:00:22.797Z,15.40
2017-09-11T21:02:49.678Z,15.50
2017-09-11T21:05:27.696Z,15.40
2017-09-11T21:07:55.737Z,15.10
2017-09-11T21:10:25.369Z,15.10
2017-09-11T21:12:51.714Z,15.20
2017-09-11T21:15:18.514Z,15.10
2017-09-11T21:17:45.307Z,15.10
2017-09-11T21:20:13.104Z,15.00
2017-09-11T21:22:39.605Z,15.10
2017-09-11T21:25:06.459Z,15.00
2017-09-11T21:27:32.673Z,15.00
2017-09-11T21:29:59.070Z,14.90
2017-09-11T21:32:26.057Z,14.80
2017-09-11T21:34:54.283Z,14.80
2017-09-11T21:37:21.579Z,14.90
2017-09-11T21:39:47.940Z,14.90
2017-09-11T21:42:14.397Z,14.80
2017-09-11T21:44:41.369Z,14.70
2017-09-11T21:47:07.639Z,14.70
2017-09-11T21:49:34.857Z,14.70
2017-09-11T21:52:01.091Z,14.70
2017-09-11T21:54:27.866Z,14.70
2017-09-11T21:56:54.659Z,14.70
2017-09-11T21:59:21.402Z,14.70
2017-09-11T22:01:48.585Z,14.70
2017-09-11T22:04:14.813Z,14.60
2017-09-11T22:06:41.641Z,14.50
2017-09-11T22:09:07.875Z,14.50
2017-09-11T22:11:35.040Z,14.40
2017-09-11T22:14:01.857Z,14.30
2017-09-11T22:16:28.966Z,14.20
2017-09-11T22:18:55.469Z,14.10
2017-09-11T22:21:23.252Z,14.10
2017-09-11T22:23:50.000Z,14.10
2017-09-11T22:26:17.517Z,14.20
2017-09-11T22:28:45.362Z,14.10
2017-09-11T22:31:11.832Z,14.10
2017-09-11T22:33:38.514Z,14.10
2017-09-11T22:36:04.818Z,14.00
2017-09-11T22:38:31.936Z,14.00
2017-09-11T22:40:59.551Z,13.80
2017-09-11T22:43:25.795Z,13.90
2017-09-11T22:45:52.242Z,13.90
2017-09-11T22:48:18.492Z,13.90
2017-09-11T22:50:45.296Z,13.70
2017-09-11T22:53:12.285Z,13.50
2017-09-11T22:55:38.514Z,13.40
2017-09-11T22:58:05.561Z,13.40
2017-09-11T23:00:32.433Z,13.50
2017-09-11T23:03:00.378Z,13.70
2017-09-11T23:05:26.631Z,13.70
2017-09-11T23:17:38.675Z,13.80
2017-09-11T23:20:05.152Z,13.70
2017-09-11T23:22:31.893Z,13.80
2017-09-11T23:24:58.609Z,13.90
2017-09-11T23:27:25.449Z,13.90
2017-09-11T23:29:53.016Z,13.90
2017-09-11T23:32:19.585Z,13.90
2017-09-11T23:34:46.371Z,14.00
2017-09-11T23:37:12.575Z,13.90
2017-09-11T23:39:39.379Z,13.90
2017-09-11T23:42:06.178Z,13.90
2017-09-11T23:44:32.389Z,13.90
2017-09-11T23:46:59.188Z,13.80
2017-09-11T23:49:26.219Z,13.80
2017-09-11T23:51:52.493Z,13.90
2017-09-11T23:54:19.989Z,13.90
2017-09-11T23:56:48.761Z,13.90
2017-09-11T23:59:14.966Z,13.80
